Hauptseite
METAR-TAF:

METAR-TAF

Flughäfen :

Bohrplattform

D15-fa-1, Niederlande

Breite: 54-19-32N, Länge: 2-56-09E, Höhe: 36 m

Beobachtung

Neuester Wetterbericht von vor 25 Minuten, um 13:25 UTC
Wind 8 kt aus unterschiedlichen Richtungen
Temperatur 11°C
Luftfeuchtigkeit 94%
Luftdruck 1037 hPa

METAR: EHDV 271325Z AUTO VRB08KT //// // ///////// 11/10 Q1037 RE//

Zeit: 15:50 (13:50 UTC)


TAF: fehlend

Wetterbeobachtungen und Prognosen von mehr als 4000 Flughäfen (METAR und TAF Bericht).

Die verfügbaren Stationen werden durch gelbe und rote Markierungen auf der Karte dargestellt.

Führen Sie die Maus auf sie, um den Namen der Station zu sehen.

Darauf klicken, um die Beobachtung von Wetterbeobachtungen und Prognosen zu sehen.

Um die Karte zu ändern : klicken Sie auf den grünen Tasten mit einem schwarzen Kreuz Zum Vergrößern, auf den grünen Button mit einem Gedankenstrich zu verkleinern, oder auf die grünen Pfeile für benachbarte Karten.


METAR-TAF: